Time;durP1;ratioP1;P1;durP2;ratioP2;P2;SDS_P1;SDS_P2;PMS_P1;PMS_P2;Temp;Humidity;BMP_temperature;BMP_pressure;BME280_temperature;BME280_humidity;BME280_pressure;Samples;Min_cycle;Max_cycle;Signal;HPM_P1;HPM_P2
2021/06/13 00:01:08;;;;;;;28.95;22.65;;;;;;;15.07;83.65;98795.25;5014537;28;20366;-69
2021/06/13 00:03:34;;;;;;;29.65;21.67;;;;;;;15.15;83.47;98798.72;5033127;28;20530;-71
2021/06/13 00:06:01;;;;;;;29.02;21.48;;;;;;;15.23;83.25;98795.22;5034215;28;20124;-69
2021/06/13 00:08:27;;;;;;;40.30;30.75;;;;;;;15.31;82.98;98797.84;5034395;28;20034;-68
2021/06/13 00:10:53;;;;;;;33.05;22.98;;;;;;;15.37;82.62;98797.16;5034351;28;20037;-68
2021/06/13 00:13:19;;;;;;;23.95;19.58;;;;;;;15.39;82.46;98794.34;5032613;28;20039;-68
2021/06/13 00:15:44;;;;;;;21.35;17.88;;;;;;;15.43;82.34;98787.66;5034252;28;20072;-68
2021/06/13 00:18:10;;;;;;;21.83;17.50;;;;;;;15.50;82.06;98790.44;5034126;28;20045;-68
2021/06/13 00:20:36;;;;;;;20.55;16.40;;;;;;;15.56;81.95;98784.44;5034400;28;20176;-72
2021/06/13 00:23:02;;;;;;;21.92;16.15;;;;;;;15.58;81.45;98787.78;5034124;28;20171;-68
2021/06/13 00:25:28;;;;;;;22.42;15.52;;;;;;;15.62;81.17;98793.59;5034309;28;20386;-71
2021/06/13 00:27:54;;;;;;;17.05;14.35;;;;;;;15.65;80.79;98786.06;5034018;28;20045;-69
2021/06/13 00:30:20;;;;;;;17.10;14.48;;;;;;;15.69;81.08;98795.38;5033853;28;20041;-69
2021/06/13 00:32:46;;;;;;;21.63;13.85;;;;;;;15.73;80.77;98787.88;5033864;28;20041;-69
2021/06/13 00:35:13;;;;;;;20.58;14.63;;;;;;;15.75;80.78;98788.53;5033905;28;20049;-68
2021/06/13 00:37:38;;;;;;;17.55;13.75;;;;;;;15.79;80.64;98784.50;5033999;28;20037;-68
2021/06/13 00:40:06;;;;;;;16.77;14.07;;;;;;;15.83;80.49;98791.19;5033878;28;20030;-67
2021/06/13 00:42:35;;;;;;;15.60;13.82;;;;;;;15.89;80.26;98788.81;5032329;28;20087;-69
2021/06/13 00:45:01;;;;;;;20.67;15.23;;;;;;;15.93;80.09;98796.28;5033690;28;20033;-69
2021/06/13 00:47:27;;;;;;;19.65;14.90;;;;;;;15.96;79.95;98787.97;5032590;28;20495;-70
2021/06/13 00:49:54;;;;;;;18.48;14.70;;;;;;;15.98;79.82;98787.78;5032530;28;20112;-68
2021/06/13 00:52:23;;;;;;;18.65;15.07;;;;;;;15.99;79.80;98792.94;5033817;28;20050;-70
2021/06/13 00:54:49;;;;;;;20.73;15.88;;;;;;;16.03;79.64;98792.59;5015811;28;20040;-69
2021/06/13 00:57:16;;;;;;;17.88;15.40;;;;;;;15.99;79.49;98792.13;5032135;28;20037;-71
2021/06/13 00:59:42;;;;;;;18.05;15.50;;;;;;;15.95;79.64;98794.28;5031713;28;20037;-68
2021/06/13 01:02:08;;;;;;;19.83;15.48;;;;;;;15.94;79.64;98792.63;5033548;28;20470;-69
2021/06/13 01:04:34;;;;;;;19.98;15.65;;;;;;;15.94;79.70;98792.63;5033269;28;20037;-68
2021/06/13 01:07:04;;;;;;;17.77;15.07;;;;;;;15.91;79.65;98798.31;5031981;28;20041;-69
2021/06/13 01:09:45;;;;;;;19.65;15.88;;;;;;;15.88;79.80;98806.66;5033288;28;20545;-68
2021/06/13 01:12:14;;;;;;;25.55;21.27;;;;;;;15.84;79.72;98808.03;5031543;28;20091;-68
2021/06/13 01:15:04;;;;;;;24.00;20.17;;;;;;;15.74;80.01;98802.03;5032041;28;20048;-68
2021/06/13 01:17:40;;;;;;;20.60;17.42;;;;;;;15.65;80.17;98802.06;5031764;28;20033;-68
2021/06/13 01:20:30;;;;;;;23.37;20.47;;;;;;;15.59;80.47;98809.91;5032297;28;20061;-69
2021/06/13 01:23:14;;;;;;;25.88;20.35;;;;;;;15.56;80.71;98808.41;5032773;28;20366;-68
2021/06/13 01:26:11;;;;;;;20.30;16.20;;;;;;;15.48;80.46;98808.47;5014859;28;20045;-71
2021/06/13 01:28:42;;;;;;;19.80;13.32;;;;;;;15.45;80.41;98808.78;5030278;28;20041;-68
2021/06/13 01:31:08;;;;;;;18.98;14.55;;;;;;;15.43;80.78;98810.81;5013760;28;20045;-68
2021/06/13 01:33:36;;;;;;;16.80;13.75;;;;;;;15.43;80.58;98806.31;5013348;28;20072;-68
2021/06/13 01:36:05;;;;;;;18.38;14.52;;;;;;;15.48;80.43;98809.28;5013628;28;20366;-68
2021/06/13 01:38:33;;;;;;;18.88;14.80;;;;;;;15.56;80.18;98805.75;5030225;28;20041;-67
2021/06/13 01:41:02;;;;;;;16.73;14.20;;;;;;;15.62;80.18;98805.06;5013418;28;20057;-68
2021/06/13 01:43:28;;;;;;;17.15;13.70;;;;;;;15.62;80.17;98802.41;5030125;28;20044;-66
2021/06/13 01:45:55;;;;;;;16.95;13.68;;;;;;;15.55;79.89;98804.09;5013480;28;20049;-69
2021/06/13 01:48:22;;;;;;;17.27;13.73;;;;;;;15.49;80.18;98800.28;5030041;28;20034;-69
2021/06/13 01:50:49;;;;;;;15.48;12.85;;;;;;;15.48;80.13;98795.97;5013529;28;20037;-66
2021/06/13 01:53:17;;;;;;;17.95;13.95;;;;;;;15.48;80.12;98803.13;5029742;28;20084;-71
2021/06/13 01:55:47;;;;;;;17.70;14.00;;;;;;;15.45;80.22;98804.31;5009392;28;20069;-71
2021/06/13 01:58:18;;;;;;;16.23;12.57;;;;;;;15.43;80.12;98800.16;5006692;28;20041;-67
2021/06/13 02:00:56;;;;;;;15.55;12.82;;;;;;;15.41;79.78;98802.16;4982212;28;20053;-68
2021/06/13 02:03:25;;;;;;;15.30;12.88;;;;;;;15.36;80.04;98795.50;5010084;28;20369;-69
2021/06/13 02:06:19;;;;;;;15.30;12.45;;;;;;;15.30;80.30;98796.19;5029372;28;20072;-70
2021/06/13 02:08:48;;;;;;;16.90;12.93;;;;;;;15.28;80.44;98803.53;5014869;28;20133;-68
2021/06/13 02:11:18;;;;;;;16.73;13.73;;;;;;;15.25;80.79;98798.50;5014786;28;20045;-70
2021/06/13 02:13:47;;;;;;;17.45;13.25;;;;;;;15.23;80.88;98795.22;5031001;28;20041;-72
2021/06/13 02:16:19;;;;;;;21.55;14.75;;;;;;;15.15;80.98;98798.72;5018586;28;20034;-70
2021/06/13 02:18:58;;;;;;;18.08;14.88;;;;;;;15.14;81.04;98793.56;5006576;28;20375;-68
2021/06/13 02:21:28;;;;;;;16.80;14.00;;;;;;;15.15;81.08;98792.56;5007676;28;20038;-68
2021/06/13 02:23:55;;;;;;;20.85;15.32;;;;;;;15.14;81.13;98791.75;4975036;28;20487;-69
2021/06/13 02:26:22;;;;;;;19.75;15.00;;;;;;;15.20;81.14;98790.22;4991286;28;20026;-71
2021/06/13 02:28:53;;;;;;;20.73;14.13;;;;;;;15.32;80.90;98788.03;4991222;28;20514;-69
2021/06/13 02:31:29;;;;;;;20.35;14.98;;;;;;;15.35;80.44;98783.19;4991170;28;20443;-69
2021/06/13 02:33:58;;;;;;;17.92;14.85;;;;;;;15.31;80.23;98781.03;5006092;28;20045;-69
2021/06/13 02:36:26;;;;;;;16.92;14.38;;;;;;;15.37;80.09;98778.50;4995953;28;20120;-68
2021/06/13 02:38:59;;;;;;;17.88;14.70;;;;;;;15.43;79.76;98778.84;5014908;28;20034;-67
2021/06/13 02:41:27;;;;;;;16.08;14.13;;;;;;;15.52;79.71;98778.63;5014856;28;20129;-69
2021/06/13 02:43:55;;;;;;;16.23;13.25;;;;;;;15.65;79.25;98775.41;5016088;28;20072;-70
2021/06/13 02:46:27;;;;;;;17.60;13.63;;;;;;;15.78;78.82;98784.69;5014993;28;20122;-68
2021/06/13 02:48:53;;;;;;;16.88;13.27;;;;;;;15.87;78.12;98775.66;5014682;28;20041;-70
2021/06/13 02:51:22;;;;;;;16.67;13.23;;;;;;;15.93;78.55;98785.63;5014669;28;20046;-70
2021/06/13 02:53:51;;;;;;;20.95;13.50;;;;;;;16.08;78.53;98782.22;4998677;28;20045;-68
2021/06/13 02:56:24;;;;;;;18.58;13.80;;;;;;;16.21;78.18;98778.97;4997108;28;20130;-68
2021/06/13 02:59:38;;;;;;;16.08;13.20;;;;;;;16.30;77.49;98780.59;5000758;28;20038;-71
2021/06/13 03:02:07;;;;;;;20.90;14.48;;;;;;;16.31;77.42;98788.41;5016218;28;20049;-70
2021/06/13 03:04:35;;;;;;;21.77;14.23;;;;;;;16.36;77.30;98790.53;5034318;28;20083;-70
2021/06/13 03:07:03;;;;;;;17.27;12.32;;;;;;;16.48;77.11;98782.94;5033896;28;20389;-69
2021/06/13 03:09:30;;;;;;;16.52;13.27;;;;;;;16.61;76.54;98791.19;5034357;28;20482;-70
2021/06/13 03:11:58;;;;;;;13.32;11.23;;;;;;;16.65;75.41;98784.47;5034483;28;20363;-69
2021/06/13 03:14:28;;;;;;;13.30;11.85;;;;;;;16.57;74.96;98789.88;5035256;28;20045;-73
2021/06/13 03:16:54;;;;;;;14.68;12.32;;;;;;;16.67;75.36;98789.63;5017503;28;20067;-69
2021/06/13 03:19:21;;;;;;;18.80;12.80;;;;;;;16.65;74.34;98784.47;5035164;28;20037;-71
2021/06/13 03:21:48;;;;;;;14.95;13.35;;;;;;;16.57;74.70;98792.53;5035095;28;20787;-69
2021/06/13 03:24:15;;;;;;;14.30;12.75;;;;;;;16.80;74.14;98787.19;5017336;28;20037;-72
2021/06/13 03:26:42;;;;;;;16.77;13.80;;;;;;;16.77;73.73;98789.38;5034088;28;20037;-73
2021/06/13 03:29:08;;;;;;;16.40;14.40;;;;;;;16.64;74.04;98788.16;5016882;28;20033;-69
2021/06/13 03:31:35;;;;;;;16.38;14.05;;;;;;;16.72;73.75;98791.75;5033916;28;20124;-69
2021/06/13 03:34:01;;;;;;;15.68;13.82;;;;;;;16.84;73.81;98798.34;5033496;28;20409;-72
2021/06/13 03:36:30;;;;;;;15.18;12.88;;;;;;;17.05;73.17;98799.53;5017742;28;20044;-68
2021/06/13 03:38:57;;;;;;;14.43;12.93;;;;;;;17.22;73.08;98806.34;5033728;28;20041;-71
2021/06/13 03:41:24;;;;;;;16.75;13.52;;;;;;;17.34;71.92;98797.88;5033271;28;20041;-70
2021/06/13 03:43:52;;;;;;;15.10;12.73;;;;;;;17.38;71.15;98799.16;5033667;28;20048;-68
2021/06/13 03:46:18;;;;;;;13.63;12.20;;;;;;;17.63;70.88;98797.88;5034397;28;20061;-71
2021/06/13 03:48:44;;;;;;;14.15;12.43;;;;;;;17.74;70.36;98795.72;5034159;28;20050;-72
2021/06/13 03:51:11;;;;;;;15.25;13.65;;;;;;;17.83;70.04;98799.97;5033499;28;20035;-71
2021/06/13 03:53:46;;;;;;;14.80;12.70;;;;;;;17.71;70.19;98798.78;5034661;28;20076;-68
2021/06/13 03:56:27;;;;;;;14.50;12.98;;;;;;;17.77;70.01;98798.88;5034554;28;20033;-67
2021/06/13 03:58:53;;;;;;;16.33;14.05;;;;;;;18.15;69.24;98797.88;5034421;28;20103;-69
2021/06/13 04:01:20;;;;;;;15.48;13.40;;;;;;;18.37;68.99;98792.56;5032633;28;20041;-69
2021/06/13 04:03:48;;;;;;;17.48;13.65;;;;;;;18.62;68.14;98795.69;5013597;28;20348;-68
2021/06/13 04:06:14;;;;;;;15.00;13.38;;;;;;;18.89;67.24;98791.38;5013264;28;20426;-68
2021/06/13 04:08:41;;;;;;;16.42;12.90;;;;;;;19.17;66.43;98795.09;5013489;28;20356;-70
2021/06/13 04:11:08;;;;;;;14.82;12.57;;;;;;;19.41;65.52;98799.16;4996833;28;20509;-68
2021/06/13 04:13:35;;;;;;;14.18;11.88;;;;;;;19.76;64.65;98796.44;5013100;28;20044;-71
2021/06/13 04:16:05;;;;;;;15.55;12.95;;;;;;;20.13;63.61;98802.41;5013327;28;20041;-68
2021/06/13 04:18:32;;;;;;;14.15;12.50;;;;;;;20.32;62.93;98798.09;4996874;28;20038;-68
2021/06/13 04:20:58;;;;;;;16.65;12.93;;;;;;;20.50;62.57;98797.50;5014244;28;20156;-67
2021/06/13 04:23:25;;;;;;;14.77;12.73;;;;;;;20.52;62.28;98798.16;5013955;28;20030;-70
2021/06/13 04:25:51;;;;;;;15.07;12.80;;;;;;;20.66;62.04;98801.66;5013176;28;20463;-71
2021/06/13 04:28:17;;;;;;;15.43;13.10;;;;;;;20.96;60.49;98805.81;5012729;28;20045;-69
2021/06/13 04:31:13;;;;;;;13.80;12.40;;;;;;;22.76;56.85;98796.22;5014204;28;20037;-70
2021/06/13 04:33:44;;;;;;;13.30;11.65;;;;;;;24.60;52.31;98795.59;5013618;28;20056;-68
2021/06/13 04:36:11;;;;;;;12.05;10.77;;;;;;;26.44;47.91;98786.31;5014070;28;20046;-70
2021/06/13 04:38:37;;;;;;;11.35;9.73;;;;;;;28.03;44.07;98788.84;5013740;28;20034;-68
2021/06/13 04:41:04;;;;;;;12.73;10.60;;;;;;;29.26;39.65;98785.56;5007185;28;20077;-73
2021/06/13 04:43:30;;;;;;;12.25;10.80;;;;;;;29.23;39.05;98789.63;5006480;28;20045;-73
2021/06/13 04:45:56;;;;;;;11.60;10.15;;;;;;;29.06;39.28;98792.53;5010958;28;20125;-69
2021/06/13 04:48:22;;;;;;;13.23;10.65;;;;;;;28.96;39.20;98790.56;5013388;28;20167;-69
2021/06/13 04:50:48;;;;;;;13.07;10.52;;;;;;;28.37;40.60;98794.13;5012284;28;20344;-70
2021/06/13 04:53:48;;;;;;;14.57;9.93;;;;;;;29.24;39.00;98790.47;5013281;28;20037;-68
2021/06/13 04:56:55;;;;;;;11.82;9.77;;;;;;;30.57;37.57;98783.88;5013477;28;20037;-69
2021/06/13 04:59:20;;;;;;;10.75;8.98;;;;;;;31.20;35.28;98780.03;5013207;28;20038;-70
2021/06/13 05:01:46;;;;;;;10.30;8.45;;;;;;;31.69;35.48;98782.09;5004766;28;20053;-69
2021/06/13 05:04:12;;;;;;;9.70;8.38;;;;;;;33.37;31.76;98783.03;5005242;28;20030;-71
2021/06/13 05:06:44;;;;;;;8.80;7.90;;;;;;;34.36;30.70;98774.38;5002201;28;20031;-69
2021/06/13 05:09:11;;;;;;;7.80;7.00;;;;;;;35.33;29.45;98771.03;4993550;28;20042;-70
2021/06/13 05:11:37;;;;;;;6.35;5.80;;;;;;;35.87;28.00;98778.75;4993694;28;20057;-69
2021/06/13 05:14:04;;;;;;;9.35;8.52;;;;;;;34.90;29.06;98785.03;5012101;28;20045;-71
2021/06/13 05:16:30;;;;;;;;;;;;;;;34.67;29.15;98780.16;5005617;28;20455;-68
2021/06/13 05:18:56;;;;;;;9.07;7.60;;;;;;;33.63;30.82;98788.19;5000261;28;19964;-72
2021/06/13 05:21:21;;;;;;;7.57;6.87;;;;;;;34.28;30.17;98775.84;5002811;28;20056;-71
2021/06/13 05:23:47;;;;;;;14.87;13.50;;;;;;;34.06;30.23;98778.34;5000264;28;20045;-71
2021/06/13 05:26:13;;;;;;;5.97;5.37;;;;;;;35.23;28.42;98777.56;5011661;28;20037;-70
2021/06/13 05:28:39;;;;;;;7.47;6.00;;;;;;;35.88;27.86;98786.75;5000333;28;20040;-71
2021/06/13 05:31:06;;;;;;;6.20;5.60;;;;;;;35.45;27.80;98790.63;5012789;28;20387;-69
2021/06/13 05:33:32;;;;;;;6.63;5.70;;;;;;;36.95;26.38;98781.75;5012833;28;20085;-70
2021/06/13 05:35:58;;;;;;;6.50;5.57;;;;;;;37.23;25.78;98782.34;5004955;28;20050;-70
2021/06/13 05:38:24;;;;;;;8.50;5.85;;;;;;;36.28;26.17;98791.63;4997766;28;20042;-72
2021/06/13 05:40:50;;;;;;;6.70;6.00;;;;;;;36.75;26.25;98788.56;4992960;28;20388;-75
2021/06/13 05:43:16;;;;;;;5.90;5.50;;;;;;;38.11;24.81;98784.56;4992598;28;20096;-69
2021/06/13 05:45:42;;;;;;;5.93;5.40;;;;;;;37.79;24.89;98787.41;4999722;28;20526;-70
2021/06/13 05:48:08;;;;;;;;;;;;;;;38.19;23.72;98787.31;5001330;28;20115;-70
2021/06/13 05:50:34;;;;;;;;;;;;;;;37.65;25.31;98779.28;5004421;28;20524;-70
2021/06/13 05:53:00;;;;;;;5.88;5.40;;;;;;;38.31;24.14;98780.38;4994650;28;19964;-71
2021/06/13 05:55:26;;;;;;;6.93;4.80;;;;;;;37.86;23.76;98785.03;4993614;28;20038;-69
2021/06/13 05:57:52;;;;;;;4.00;3.60;;;;;;;38.03;23.95;98777.91;4999753;28;20124;-72
2021/06/13 06:00:24;;;;;;;5.40;4.20;;;;;;;37.32;24.02;98776.88;5003352;28;20061;-76
2021/06/13 06:02:50;;;;;;;4.07;3.20;;;;;;;38.19;23.40;98779.03;4993779;28;20089;-70
2021/06/13 06:05:17;;;;;;;3.85;3.13;;;;;;;36.80;23.49;98780.19;4992310;28;20041;-70
2021/06/13 06:07:43;;;;;;;4.47;2.80;;;;;;;38.41;22.83;98777.28;4992938;28;20038;-71
2021/06/13 06:10:11;;;;;;;3.08;2.80;;;;;;;39.55;21.59;98773.38;5007218;28;20513;-72
2021/06/13 06:12:37;;;;;;;2.95;2.75;;;;;;;39.99;21.25;98781.41;5011434;28;20120;-71
2021/06/13 06:15:08;;;;;;;5.60;2.63;;;;;;;38.96;21.32;98777.69;5011893;28;20034;-70
2021/06/13 06:17:34;;;;;;;3.45;2.80;;;;;;;38.64;22.15;98779.84;5012086;28;20550;-69
2021/06/13 06:20:00;;;;;;;3.30;3.00;;;;;;;39.04;21.59;98776.03;5012245;28;20128;-70
2021/06/13 06:22:26;;;;;;;2.75;2.53;;;;;;;37.28;22.34;98789.69;5011644;28;20121;-71
2021/06/13 06:24:51;;;;;;;2.78;2.47;;;;;;;38.22;22.16;98785.06;5012408;28;20045;-71
2021/06/13 06:27:17;;;;;;;3.88;3.45;;;;;;;37.37;22.75;98784.22;5012371;28;20037;-71
2021/06/13 06:29:43;;;;;;;5.43;3.50;;;;;;;37.74;23.14;98779.31;5012257;28;20551;-69
2021/06/13 06:32:09;;;;;;;5.47;2.90;;;;;;;38.93;21.76;98776.41;5011844;28;20030;-75
2021/06/13 06:34:35;;;;;;;2.67;2.47;;;;;;;37.49;22.03;98776.16;5010886;28;20053;-73
2021/06/13 06:37:04;;;;;;;3.10;2.83;;;;;;;37.43;23.32;98788.47;5012136;28;20042;-72
2021/06/13 06:39:29;;;;;;;2.67;2.47;;;;;;;38.38;21.54;98777.13;5011957;28;20038;-73
2021/06/13 06:41:55;;;;;;;3.85;2.60;;;;;;;37.79;22.78;98784.66;5012020;28;20056;-70
2021/06/13 06:44:21;;;;;;;3.88;3.17;;;;;;;38.09;21.60;98793.16;5011987;28;20030;-76
2021/06/13 06:46:48;;;;;;;2.78;2.58;;;;;;;37.79;22.84;98787.41;5012046;28;20045;-69
2021/06/13 06:49:13;;;;;;;3.08;2.78;;;;;;;37.66;22.88;98785.59;5012071;28;20025;-74
2021/06/13 06:51:39;;;;;;;3.17;2.60;;;;;;;37.80;22.20;98785.50;5012007;28;20378;-71
2021/06/13 06:54:05;;;;;;;3.10;2.38;;;;;;;39.38;21.27;98780.63;5011938;28;20374;-73
2021/06/13 06:56:31;;;;;;;3.00;2.40;;;;;;;38.25;21.95;98790.75;5011948;28;20038;-70
2021/06/13 06:58:57;;;;;;;3.25;2.78;;;;;;;38.46;21.73;98785.41;5010810;28;20034;-71
2021/06/13 07:01:24;;;;;;;3.08;2.58;;;;;;;38.94;21.15;98791.81;5012393;28;20034;-72
2021/06/13 07:03:49;;;;;;;1.95;1.85;;;;;;;37.29;21.87;98796.03;5031456;28;20087;-73
2021/06/13 07:06:15;;;;;;;2.83;2.30;;;;;;;37.90;21.58;98796.25;5031290;28;20426;-72
2021/06/13 07:08:41;;;;;;;2.63;2.30;;;;;;;39.82;20.17;98787.88;5031778;28;20047;-75
2021/06/13 07:11:07;;;;;;;3.00;2.80;;;;;;;39.22;20.36;98785.06;5031946;28;20037;-71
2021/06/13 07:13:33;;;;;;;;;;;;;;;39.98;19.74;98794.47;5031752;28;20416;-74
2021/06/13 07:15:59;;;;;;;3.30;3.08;;;;;;;40.05;20.03;98791.13;5031509;28;19992;-71
2021/06/13 07:18:26;;;;;;;;;;;;;;;38.44;21.89;98793.19;5031839;28;20120;-74
2021/06/13 07:20:55;;;;;;;2.90;2.70;;;;;;;38.66;21.31;98788.63;5030083;28;19909;-72
2021/06/13 07:23:22;;;;;;;3.50;3.20;;;;;;;38.59;21.66;98782.78;5030899;28;20474;-74
2021/06/13 07:25:48;;;;;;;3.38;3.08;;;;;;;37.90;22.06;98789.91;5034978;28;20375;-70
2021/06/13 07:28:15;;;;;;;3.22;2.88;;;;;;;39.10;20.89;98794.84;5034977;28;20073;-71
2021/06/13 07:30:41;;;;;;;2.85;2.65;;;;;;;39.95;19.54;98790.41;5034931;28;20660;-72
2021/06/13 07:33:07;;;;;;;2.95;2.28;;;;;;;39.46;19.81;98790.81;5034963;28;20084;-76
2021/06/13 07:35:33;;;;;;;2.00;1.90;;;;;;;38.33;20.19;98802.94;5034771;28;20037;-78
2021/06/13 07:38:00;;;;;;;7.30;6.75;;;;;;;38.17;20.81;98786.00;5035022;28;20033;-72
2021/06/13 07:40:27;;;;;;;2.47;2.20;;;;;;;37.78;21.09;98788.56;5034620;28;20168;-73
2021/06/13 07:42:53;;;;;;;2.10;2.00;;;;;;;37.78;21.21;98794.06;5034764;28;20127;-72
2021/06/13 07:45:20;;;;;;;2.28;2.17;;;;;;;37.27;20.40;98795.53;5034307;28;20482;-74
2021/06/13 07:47:46;;;;;;;2.38;2.08;;;;;;;38.33;20.37;98802.94;5034578;28;20033;-72
2021/06/13 07:50:12;;;;;;;;;;;;;;;37.84;20.79;98797.53;5033862;28;20116;-74
2021/06/13 07:52:38;;;;;;;5.15;2.65;;;;;;;37.66;20.06;98802.16;5034191;28;19916;-75
2021/06/13 07:55:06;;;;;;;1.85;1.75;;;;;;;37.83;20.05;98785.66;5034554;28;20041;-76
2021/06/13 07:57:32;;;;;;;2.03;1.92;;;;;;;38.46;19.31;98790.91;5034177;28;20043;-74
2021/06/13 07:59:57;;;;;;;;;;;;;;;37.86;20.48;98787.78;5034883;28;20037;-78
2021/06/13 08:02:23;;;;;;;2.35;1.90;;;;;;;37.95;20.15;98785.03;5023467;28;19920;-73
2021/06/13 08:04:55;;;;;;;2.00;1.90;;;;;;;38.09;20.17;98792.38;5014563;28;20468;-76
2021/06/13 08:07:20;;;;;;;2.00;1.90;;;;;;;39.11;19.30;98782.66;5014302;28;20033;-71
2021/06/13 08:09:46;;;;;;;2.80;2.60;;;;;;;38.06;19.94;98796.59;5014428;28;20037;-72
2021/06/13 08:12:12;;;;;;;2.13;2.03;;;;;;;37.41;20.39;98790.72;5014503;28;20048;-72
2021/06/13 08:14:38;;;;;;;2.38;2.28;;;;;;;37.81;20.46;98793.47;5012843;28;20087;-73
2021/06/13 08:17:05;;;;;;;2.15;2.05;;;;;;;37.93;20.08;98789.25;5014393;28;20418;-73
2021/06/13 08:19:31;;;;;;;2.70;2.47;;;;;;;38.58;19.52;98787.47;5013777;28;20037;-78
2021/06/13 08:21:57;;;;;;;2.22;2.00;;;;;;;39.80;18.78;98788.22;5014489;28;20030;-76
2021/06/13 08:24:23;;;;;;;1.98;1.83;;;;;;;38.39;19.05;98789.78;5014189;28;20061;-74
2021/06/13 08:26:49;;;;;;;1.88;1.77;;;;;;;38.00;20.89;98795.13;5013206;28;20124;-74
2021/06/13 08:29:14;;;;;;;2.65;2.22;;;;;;;38.13;20.52;98794.13;5014286;28;20121;-77
2021/06/13 08:31:40;;;;;;;3.65;2.20;;;;;;;37.96;20.39;98791.38;5013651;28;20200;-71
2021/06/13 08:34:06;;;;;;;3.72;2.15;;;;;;;37.32;20.48;98785.16;5013714;28;20042;-73
2021/06/13 08:36:33;;;;;;;3.97;3.08;;;;;;;37.43;21.18;98788.47;5012537;28;20041;-71
2021/06/13 08:38:59;;;;;;;3.13;2.92;;;;;;;37.33;20.76;98774.94;4996360;28;20484;-75
2021/06/13 08:41:25;;;;;;;3.10;2.90;;;;;;;37.45;20.80;98793.66;5013675;28;20143;-76
2021/06/13 08:43:52;;;;;;;6.10;5.47;;;;;;;37.90;20.55;98784.38;5012646;28;20038;-72
2021/06/13 08:46:20;;;;;;;9.02;8.30;;;;;;;38.18;20.59;98784.88;5012215;28;20037;-72
2021/06/13 08:48:48;;;;;;;3.90;3.60;;;;;;;38.51;20.55;98787.19;5012779;28;20467;-76
2021/06/13 08:51:14;;;;;;;2.25;2.15;;;;;;;37.10;21.88;98793.50;5013793;28;20065;-73
2021/06/13 08:53:44;;;;;;;2.60;2.20;;;;;;;37.79;20.75;98784.66;5014070;28;20487;-72
2021/06/13 08:56:14;;;;;;;2.25;2.03;;;;;;;37.21;21.13;98792.91;4996514;28;20387;-71
2021/06/13 08:58:41;;;;;;;5.13;2.30;;;;;;;36.54;22.02;98791.84;5013141;28;20518;-71
2021/06/13 09:01:09;;;;;;;2.20;2.00;;;;;;;36.90;22.36;98793.72;5012406;28;20125;-74
2021/06/13 09:03:35;;;;;;;3.28;3.08;;;;;;;37.24;21.65;98797.78;5032472;28;20038;-78
2021/06/13 09:06:01;;;;;;;;;;;;;;;36.59;21.14;98791.72;5033891;28;20129;-73
2021/06/13 09:08:36;;;;;;;;;;;;;;;35.99;21.70;98784.59;5033718;28;19983;-74
2021/06/13 09:11:02;;;;;;;2.08;1.90;;;;;;;36.30;21.54;98777.53;5033235;28;19955;-72
2021/06/13 09:13:30;;;;;;;2.88;1.90;;;;;;;35.40;22.29;98787.97;5032659;28;20041;-72
2021/06/13 09:16:00;;;;;;;2.83;2.63;;;;;;;35.99;21.92;98786.50;5033239;28;20037;-71
2021/06/13 09:18:32;;;;;;;2.50;2.30;;;;;;;36.09;22.09;98787.09;5033084;28;20059;-70
2021/06/13 09:21:00;;;;;;;2.40;2.10;;;;;;;35.82;22.27;98782.44;5033245;28;20041;-72
2021/06/13 09:23:27;;;;;;;;;;;;;;;36.09;21.97;98769.75;5034113;28;20124;-72
2021/06/13 09:26:03;;;;;;;2.28;2.03;;;;;;;35.68;22.26;98770.63;5031726;28;19919;-75
2021/06/13 09:28:31;;;;;;;2.97;2.60;;;;;;;36.82;21.64;98766.09;5032778;28;20510;-75
2021/06/13 09:30:57;;;;;;;2.40;2.20;;;;;;;36.84;21.08;98767.41;5031545;28;20481;-74
2021/06/13 09:33:32;;;;;;;2.20;2.08;;;;;;;37.21;20.82;98761.75;5031442;28;20124;-72
2021/06/13 09:35:59;;;;;;;7.25;6.65;;;;;;;37.98;19.62;98765.06;5032787;28;20553;-73
2021/06/13 09:38:30;;;;;;;3.97;3.58;;;;;;;36.93;21.19;98758.41;5032423;28;20041;-70
2021/06/13 09:41:02;;;;;;;4.07;2.95;;;;;;;36.85;20.92;98773.72;5031396;28;20041;-72
2021/06/13 09:43:39;;;;;;;2.60;1.92;;;;;;;36.51;21.22;98770.41;5031648;28;20427;-71
2021/06/13 09:46:10;;;;;;;4.10;3.80;;;;;;;35.55;22.20;98767.56;5031545;28;20040;-73
2021/06/13 09:48:41;;;;;;;1.58;1.48;;;;;;;36.18;21.13;98756.88;5032181;28;20037;-77
2021/06/13 09:51:09;;;;;;;3.70;1.90;;;;;;;37.34;20.51;98762.81;5032400;28;20494;-78
2021/06/13 09:53:44;;;;;;;1.65;1.55;;;;;;;37.60;19.67;98759.28;5032183;28;20045;-74
2021/06/13 09:56:17;;;;;;;1.58;1.48;;;;;;;36.88;20.14;98765.66;5031040;28;20513;-72
2021/06/13 09:58:50;;;;;;;1.70;1.60;;;;;;;35.84;21.36;98769.19;5032395;28;20068;-71
2021/06/13 10:01:40;;;;;;;2.17;1.40;;;;;;;35.07;21.67;98762.44;5022792;28;20069;-73
2021/06/13 10:04:09;;;;;;;2.35;1.38;;;;;;;33.74;22.91;98766.16;5030170;28;20036;-76
2021/06/13 10:06:36;;;;;;;1.52;1.30;;;;;;;35.39;21.16;98753.34;5029846;28;20067;-75
2021/06/13 10:09:06;;;;;;;2.40;1.40;;;;;;;34.69;22.18;98751.59;5032547;28;20041;-74
2021/06/13 10:11:31;;;;;;;2.85;1.40;;;;;;;32.91;24.10;98764.28;5032093;28;20033;-72
2021/06/13 10:14:00;;;;;;;2.77;2.17;;;;;;;31.89;25.28;98752.97;5032291;28;20045;-77
2021/06/13 10:16:32;;;;;;;4.43;2.67;;;;;;;30.76;27.16;98754.94;5032068;28;20052;-73
2021/06/13 10:19:21;;;;;;;2.60;2.30;;;;;;;30.18;28.26;98750.53;5032421;28;20037;-79
2021/06/13 10:21:51;;;;;;;1.80;1.45;;;;;;;29.97;29.18;98754.28;5031847;28;20029;-76
2021/06/13 10:24:43;;;;;;;1.73;1.63;;;;;;;30.28;28.97;98743.44;5031889;28;20041;-74
2021/06/13 10:27:12;;;;;;;1.65;1.45;;;;;;;30.66;28.74;98744.03;5029983;28;20413;-74
2021/06/13 10:29:40;;;;;;;4.85;2.40;;;;;;;31.48;28.29;98742.22;5031735;28;20029;-73
2021/06/13 10:32:08;;;;;;;2.10;1.90;;;;;;;32.34;26.98;98747.50;5031859;28;20091;-73
2021/06/13 10:34:34;;;;;;;4.20;1.70;;;;;;;32.25;26.24;98750.88;5030252;28;20048;-73
2021/06/13 10:37:03;;;;;;;2.33;2.08;;;;;;;32.76;25.49;98748.03;5032177;28;20076;-75
2021/06/13 10:39:31;;;;;;;2.58;1.70;;;;;;;32.33;25.98;98754.09;5032008;28;20029;-73
2021/06/13 10:41:57;;;;;;;1.58;1.48;;;;;;;31.72;27.17;98765.09;5032211;28;20132;-73
2021/06/13 10:44:26;;;;;;;2.30;2.10;;;;;;;31.24;27.42;98760.06;5031633;28;20555;-73
2021/06/13 10:46:54;;;;;;;7.65;5.90;;;;;;;31.40;27.79;98755.34;5030590;28;20029;-70
2021/06/13 10:49:36;;;;;;;2.42;1.83;;;;;;;31.41;27.72;98758.91;5031792;28;20041;-74
2021/06/13 10:52:09;;;;;;;3.05;1.80;;;;;;;31.59;27.40;98754.72;5031626;28;20478;-77
2021/06/13 10:54:37;;;;;;;1.73;1.48;;;;;;;31.46;28.07;98756.97;5031571;28;20425;-77
2021/06/13 10:57:06;;;;;;;2.88;1.75;;;;;;;30.90;29.35;98760.63;5032190;28;20038;-75
2021/06/13 10:59:33;;;;;;;3.67;1.58;;;;;;;31.08;29.13;98762.03;5035255;28;20063;-74
2021/06/13 11:02:12;;;;;;;4.15;1.88;;;;;;;31.73;28.86;98755.81;5029238;28;20029;-74
2021/06/13 11:04:50;;;;;;;2.85;2.38;;;;;;;31.01;29.19;98756.00;5016094;28;20038;-80
2021/06/13 11:07:35;;;;;;;3.65;1.70;;;;;;;30.35;29.59;98760.38;5015886;28;20034;-77
2021/06/13 11:10:10;;;;;;;1.73;1.63;;;;;;;29.96;29.84;98758.13;5015644;28;20049;-73
2021/06/13 11:12:59;;;;;;;3.17;2.25;;;;;;;29.60;30.68;98761.53;5015227;28;20041;-74
2021/06/13 11:15:31;;;;;;;2.45;1.75;;;;;;;30.14;29.54;98765.78;5015812;28;20041;-74
2021/06/13 11:18:14;;;;;;;2.60;1.55;;;;;;;30.15;29.45;98761.97;5015673;28;20038;-77
2021/06/13 11:20:53;;;;;;;1.90;1.70;;;;;;;29.68;29.79;98763.75;5015094;28;20116;-71
2021/06/13 11:23:22;;;;;;;4.10;1.92;;;;;;;29.61;29.85;98775.94;5015569;28;20045;-73
2021/06/13 11:25:49;;;;;;;1.65;1.52;;;;;;;29.21;29.93;98776.28;5015408;28;20037;-74
2021/06/13 11:28:19;;;;;;;2.25;1.73;;;;;;;28.88;30.27;98778.25;5014136;28;20168;-72
2021/06/13 11:30:55;;;;;;;3.25;1.48;;;;;;;29.20;29.88;98788.25;5015114;28;20042;-72
2021/06/13 11:33:44;;;;;;;3.80;2.05;;;;;;;29.38;30.07;98786.22;5015467;28;20057;-73
2021/06/13 11:36:21;;;;;;;3.40;1.85;;;;;;;29.30;31.04;98790.25;5015454;28;20040;-73
2021/06/13 11:39:04;;;;;;;2.40;1.70;;;;;;;28.07;34.30;98796.25;5015002;28;20049;-75